Terminal Aerodrome Forecast
Issued by NWS

Home | Current Version | Previous Version | Graphics & Text | Print | Product List | Glossary On
Versions: 1 2 3 4 5 6 7 8 9 10 11 12 13 14 15 16 17 18 19 20 21 22 23 24 25 26 27 28
299
FTUS43 KTOP 252118 AAA
TAFFOE
TAF AMD
KFOE 252118Z 2521/2618 16005KT P6SM SCT022
     FM260500 15004KT 4SM BR BKN011
     FM260900 11003KT 3SM BR VCTS BKN006CB
     FM261400 12010KT P6SM SCT006 BKN011=

USA.gov is the U.S. government's official web portal to all federal, state and local government web resources and services.